Time;durP1;ratioP1;P1;durP2;ratioP2;P2;SDS_P1;SDS_P2;PMS_P1;PMS_P2;Temp;Humidity;BMP_temperature;BMP_pressure;BME280_temperature;BME280_humidity;BME280_pressure;Samples;Min_cycle;Max_cycle;Signal;HPM_P1;HPM_P2
2022/09/10 00:00:18;;;;;;;1.98;0.50;;;;;;;11.20;100.00;92993.38;2126075;27;20023;-73
2022/09/10 00:01:21;;;;;;;3.80;0.98;;;;;;;11.17;100.00;92988.88;2135920;27;20053;-73
2022/09/10 00:02:22;;;;;;;1.80;0.60;;;;;;;11.20;100.00;92996.06;2134529;27;20083;-73
2022/09/10 00:03:24;;;;;;;1.08;0.47;;;;;;;11.10;100.00;93000.50;2135902;27;20079;-73
2022/09/10 00:04:25;;;;;;;1.98;0.47;;;;;;;11.12;100.00;92998.16;2136100;27;20057;-73
2022/09/10 00:05:26;;;;;;;2.92;0.90;;;;;;;11.08;100.00;92992.16;2135419;27;20027;-73
2022/09/10 00:06:28;;;;;;;4.03;0.50;;;;;;;11.05;100.00;92991.06;2135764;27;20109;-73
2022/09/10 00:07:30;;;;;;;2.17;0.82;;;;;;;11.09;100.00;92996.31;2135184;27;20022;-73
2022/09/10 00:08:33;;;;;;;2.20;0.70;;;;;;;11.09;100.00;92993.66;2131565;27;20359;-73
2022/09/10 00:09:34;;;;;;;0.52;0.35;;;;;;;11.08;100.00;92992.16;2135971;27;20026;-72
2022/09/10 00:10:43;;;;;;;1.83;0.57;;;;;;;11.04;100.00;92989.56;2135615;27;20028;-72
2022/09/10 00:11:45;;;;;;;4.40;0.70;;;;;;;11.06;100.00;92994.47;2126623;27;20092;-73
2022/09/10 00:12:50;;;;;;;4.75;0.70;;;;;;;10.98;100.00;92996.59;2124261;27;20034;-73
2022/09/10 00:13:51;;;;;;;2.45;0.80;;;;;;;11.03;100.00;92998.00;2135965;27;20045;-73
2022/09/10 00:14:53;;;;;;;2.72;0.77;;;;;;;11.03;100.00;92990.00;2136780;27;20038;-73
2022/09/10 00:15:54;;;;;;;3.80;0.60;;;;;;;11.03;100.00;92990.75;2135700;27;20029;-73
2022/09/10 00:16:55;;;;;;;2.90;0.73;;;;;;;11.04;100.00;92992.22;2126537;27;20023;-73
2022/09/10 00:17:56;;;;;;;3.63;0.82;;;;;;;11.09;100.00;92996.31;2123110;27;20518;-73
2022/09/10 00:18:57;;;;;;;1.05;0.50;;;;;;;10.97;100.00;92987.06;2135919;27;20026;-74
2022/09/10 00:19:58;;;;;;;3.40;0.75;;;;;;;10.94;100.00;92990.59;2135750;27;20049;-73
2022/09/10 00:21:03;;;;;;;5.40;0.80;;;;;;;10.97;100.00;92997.00;2135550;27;20628;-73
2022/09/10 00:22:04;;;;;;;2.45;0.68;;;;;;;10.96;100.00;93000.84;2135783;27;20070;-73
2022/09/10 00:23:05;;;;;;;5.57;0.70;;;;;;;10.99;100.00;92992.75;2135079;27;20762;-73
2022/09/10 00:24:06;;;;;;;1.98;0.52;;;;;;;11.00;100.00;92991.56;2136020;27;20030;-73
2022/09/10 00:25:07;;;;;;;1.02;0.47;;;;;;;10.98;100.00;92988.59;2135919;27;20033;-73
2022/09/10 00:26:17;;;;;;;1.33;0.50;;;;;;;10.92;100.00;92998.28;2137045;27;20022;-73
2022/09/10 00:27:18;;;;;;;1.98;0.68;;;;;;;11.15;100.00;92997.31;2136612;27;20022;-72
2022/09/10 00:28:20;;;;;;;1.55;0.60;;;;;;;11.15;100.00;92988.53;2131813;27;20063;-73
2022/09/10 00:29:21;;;;;;;1.60;0.57;;;;;;;11.12;100.00;92998.16;2136222;27;20164;-72
2022/09/10 00:30:23;;;;;;;2.25;0.70;;;;;;;11.19;100.00;92989.94;2139028;27;20082;-73
2022/09/10 00:31:25;;;;;;;4.15;0.57;;;;;;;11.18;100.00;92988.44;2137045;27;20042;-73
2022/09/10 00:32:26;;;;;;;2.88;0.63;;;;;;;11.30;100.00;93000.38;2134953;27;20030;-74
2022/09/10 00:33:27;;;;;;;2.35;0.75;;;;;;;11.31;100.00;92996.53;2134861;27;20018;-74
2022/09/10 00:34:28;;;;;;;1.77;0.60;;;;;;;11.19;100.00;92995.28;2126570;27;20023;-74
2022/09/10 00:35:32;;;;;;;5.68;0.68;;;;;;;11.19;100.00;92991.88;2113777;27;20035;-73
2022/09/10 00:36:37;;;;;;;2.30;0.60;;;;;;;11.18;100.00;92990.38;2122226;27;20023;-74
2022/09/10 00:37:38;;;;;;;2.88;0.80;;;;;;;11.16;100.00;92990.81;2135658;27;20033;-74
2022/09/10 00:38:39;;;;;;;2.63;0.70;;;;;;;11.15;100.00;92985.84;2121473;27;20031;-74
2022/09/10 00:39:40;;;;;;;2.42;0.60;;;;;;;11.16;100.00;92985.44;2126521;27;20507;-74
2022/09/10 00:40:41;;;;;;;1.67;0.85;;;;;;;11.18;100.00;92985.75;2135596;27;20026;-74
2022/09/10 00:41:45;;;;;;;1.20;0.45;;;;;;;11.13;100.00;92980.19;2135442;27;20034;-74
2022/09/10 00:42:46;;;;;;;2.47;0.50;;;;;;;11.16;100.00;92982.03;2135668;27;20022;-73
2022/09/10 00:43:52;;;;;;;2.78;0.47;;;;;;;11.19;100.00;92981.16;2131643;27;20350;-73
2022/09/10 00:44:57;;;;;;;5.47;0.77;;;;;;;11.18;100.00;92982.34;2125993;27;20034;-73
2022/09/10 00:45:58;;;;;;;1.95;0.60;;;;;;;11.16;100.00;92974.00;2127215;27;20031;-73
2022/09/10 00:46:59;;;;;;;3.38;0.60;;;;;;;11.16;100.00;92982.03;2135463;27;20018;-74
2022/09/10 00:48:04;;;;;;;4.60;0.93;;;;;;;11.18;100.00;92977.75;2135692;27;20051;-73
2022/09/10 00:49:24;;;;;;;3.92;0.60;;;;;;;11.12;100.00;92976.00;2133198;27;20074;-74
2022/09/10 00:50:29;;;;;;;3.65;0.50;;;;;;;11.21;100.00;92979.59;2135377;27;20053;-73
2022/09/10 00:51:34;;;;;;;4.88;1.27;;;;;;;11.26;100.00;92978.31;2135607;27;20034;-73
2022/09/10 00:52:34;;;;;;;0.77;0.60;;;;;;;11.25;100.00;92982.16;2123094;27;20042;-73
2022/09/10 00:53:35;;;;;;;3.10;0.63;;;;;;;11.17;100.00;92976.25;2129650;27;20039;-73
2022/09/10 00:54:39;;;;;;;2.55;0.60;;;;;;;11.16;100.00;92972.06;2131782;27;20022;-73
2022/09/10 00:55:45;;;;;;;1.23;0.70;;;;;;;11.22;100.00;92970.38;2134779;27;20022;-73
2022/09/10 00:56:48;;;;;;;1.90;0.80;;;;;;;11.18;100.00;92972.38;2135560;27;20033;-73
2022/09/10 00:57:53;;;;;;;2.15;0.60;;;;;;;11.12;100.00;92974.09;2135317;27;20053;-73
2022/09/10 00:58:55;;;;;;;3.90;0.88;;;;;;;11.31;100.00;92975.84;2135549;27;20022;-73
2022/09/10 01:00:06;;;;;;;3.17;0.63;;;;;;;11.35;100.00;92970.41;2136116;27;20038;-73
2022/09/10 01:01:07;;;;;;;3.63;0.70;;;;;;;11.34;100.00;92974.28;2132346;27;20475;-72
2022/09/10 01:02:10;;;;;;;1.45;0.40;;;;;;;11.29;100.00;92975.53;2136889;27;20082;-72
2022/09/10 01:03:14;;;;;;;7.63;0.70;;;;;;;11.26;100.00;92968.34;2136963;27;20419;-72
2022/09/10 01:04:15;;;;;;;6.13;0.80;;;;;;;11.22;100.00;92967.69;2138318;27;20467;-73
2022/09/10 01:05:18;;;;;;;4.85;0.70;;;;;;;11.18;100.00;92972.38;2129720;27;20027;-73
2022/09/10 01:06:19;;;;;;;1.95;0.63;;;;;;;11.16;100.00;92977.41;2131417;27;20026;-73
2022/09/10 01:07:22;;;;;;;2.92;0.68;;;;;;;11.19;100.00;92967.78;2135663;27;20033;-73
2022/09/10 01:08:26;;;;;;;2.65;0.50;;;;;;;11.18;100.00;92967.03;2135610;27;20083;-73
2022/09/10 01:09:28;;;;;;;3.63;0.63;;;;;;;11.16;100.00;92966.72;2135479;27;20099;-73
2022/09/10 01:10:36;;;;;;;1.83;0.80;;;;;;;11.15;100.00;92967.91;2130635;27;20137;-73
2022/09/10 01:11:58;;;;;;;2.13;0.65;;;;;;;11.09;100.00;92969.56;2131947;27;20030;-73
2022/09/10 01:13:30;;;;;;;2.42;0.65;;;;;;;11.14;100.00;92955.69;2135400;27;20025;-73
2022/09/10 01:14:56;;;;;;;2.63;0.60;;;;;;;11.19;100.00;92957.09;2135182;27;20150;-73
2022/09/10 01:16:46;;;;;;;1.08;0.50;;;;;;;11.17;100.00;92964.78;2136711;27;20034;-73
2022/09/10 01:18:04;;;;;;;2.70;0.40;;;;;;;11.22;100.00;92972.31;2083300;28;20121;-73
2022/09/10 01:19:30;;;;;;;3.30;0.60;;;;;;;11.31;100.00;92969.75;2126094;27;20022;-73
2022/09/10 01:20:53;;;;;;;3.72;0.63;;;;;;;11.23;100.00;92971.88;2129670;27;20034;-73
2022/09/10 01:21:59;;;;;;;1.35;0.70;;;;;;;11.19;100.00;92973.13;2134314;27;20030;-73
2022/09/10 01:23:28;;;;;;;1.48;0.60;;;;;;;11.19;100.00;92973.13;2135187;27;20022;-73
2022/09/10 01:24:47;;;;;;;2.08;0.60;;;;;;;11.25;100.00;92979.50;2135047;27;20079;-73
2022/09/10 01:26:16;;;;;;;2.53;0.60;;;;;;;11.23;100.00;92977.22;2132560;27;20018;-73
2022/09/10 01:27:49;;;;;;;2.08;0.70;;;;;;;11.22;100.00;92983.75;2133194;27;20030;-73
2022/09/10 01:28:53;;;;;;;1.30;0.50;;;;;;;11.23;100.00;92985.25;2130483;27;20045;-73
2022/09/10 01:30:08;;;;;;;0.65;0.55;;;;;;;11.24;100.00;92978.75;2135268;27;20031;-73
2022/09/10 01:31:24;;;;;;;4.95;0.93;;;;;;;11.25;100.00;92987.53;2131186;27;20026;-72
2022/09/10 01:33:10;;;;;;;3.08;0.70;;;;;;;11.19;100.00;92971.22;2135353;27;20026;-73
2022/09/10 01:34:36;;;;;;;1.98;0.80;;;;;;;11.24;100.00;92976.06;2132268;27;20034;-75
2022/09/10 01:35:45;;;;;;;1.90;0.63;;;;;;;11.23;100.00;92971.88;2131809;27;20034;-75
2022/09/10 01:36:50;;;;;;;4.80;1.03;;;;;;;11.27;100.00;92977.88;2133227;27;20109;-74
2022/09/10 01:37:58;;;;;;;2.15;0.70;;;;;;;11.28;100.00;92979.41;2135227;27;20435;-74
2022/09/10 01:39:01;;;;;;;3.88;0.93;;;;;;;11.24;100.00;92980.66;2134913;27;20013;-74
2022/09/10 01:40:03;;;;;;;2.92;0.70;;;;;;;11.22;100.00;92981.06;2131160;27;20037;-74
2022/09/10 01:41:04;;;;;;;3.92;0.80;;;;;;;11.23;100.00;92977.22;2135010;27;20121;-74
2022/09/10 01:42:06;;;;;;;1.20;0.68;;;;;;;11.25;100.00;92976.81;2134566;27;20041;-74
2022/09/10 01:43:09;;;;;;;4.22;1.23;;;;;;;11.24;100.00;92983.34;2135142;27;20030;-74
2022/09/10 01:44:46;;;;;;;2.53;0.80;;;;;;;11.30;100.00;92984.31;2135064;27;20109;-74
2022/09/10 01:45:50;;;;;;;1.10;0.40;;;;;;;11.23;100.00;92989.84;2133204;27;20026;-74
2022/09/10 01:47:08;;;;;;;3.50;0.60;;;;;;;11.19;100.00;92981.16;2134354;27;20157;-74
2022/09/10 01:48:39;;;;;;;6.88;0.90;;;;;;;11.17;100.00;92978.91;2131751;27;20015;-76
2022/09/10 01:50:01;;;;;;;6.63;1.55;;;;;;;11.25;100.00;92971.47;2122786;27;20033;-77
2022/09/10 01:51:08;;;;;;;4.18;0.82;;;;;;;11.14;100.00;92965.63;2113093;27;20022;-76
2022/09/10 01:52:27;;;;;;;4.28;0.80;;;;;;;11.09;100.00;92969.56;2116888;27;20072;-76
2022/09/10 01:53:55;;;;;;;2.97;1.13;;;;;;;11.12;100.00;92973.34;2127398;27;20044;-75
2022/09/10 01:55:34;;;;;;;2.88;0.80;;;;;;;11.02;100.00;92970.53;2128949;27;20519;-74
2022/09/10 01:57:00;;;;;;;3.88;0.98;;;;;;;11.09;100.00;92975.66;2125505;27;20037;-74
2022/09/10 01:58:20;;;;;;;3.10;0.75;;;;;;;11.07;100.00;92980.72;2122582;27;20038;-73
2022/09/10 01:59:42;;;;;;;4.32;0.77;;;;;;;11.09;100.00;92978.34;2136412;27;20038;-75
2022/09/10 02:00:51;;;;;;;2.78;0.85;;;;;;;11.06;100.00;92979.22;2132555;27;20026;-75
2022/09/10 02:02:04;;;;;;;4.22;0.77;;;;;;;11.09;100.00;92975.66;2135051;27;20103;-74
2022/09/10 02:03:15;;;;;;;3.53;0.70;;;;;;;11.05;100.00;92975.00;2134110;27;20444;-74
2022/09/10 02:04:18;;;;;;;0.75;0.55;;;;;;;11.08;100.00;92974.19;2135070;27;20036;-74
2022/09/10 02:05:22;;;;;;;3.00;0.60;;;;;;;11.09;100.00;92969.56;2135103;27;20448;-74
2022/09/10 02:06:28;;;;;;;2.38;0.80;;;;;;;11.07;100.00;92964.66;2134750;27;20055;-73
2022/09/10 02:07:30;;;;;;;1.20;0.70;;;;;;;11.07;100.00;92967.34;2124780;27;20019;-73
2022/09/10 02:08:36;;;;;;;2.08;0.60;;;;;;;11.06;100.00;92965.06;2121655;27;20098;-74
2022/09/10 02:09:37;;;;;;;1.42;0.70;;;;;;;11.08;100.00;92958.13;2134804;27;20573;-73
2022/09/10 02:10:58;;;;;;;3.38;0.40;;;;;;;11.10;100.00;92963.03;2134830;27;20459;-73
2022/09/10 02:11:59;;;;;;;3.95;0.60;;;;;;;11.06;100.00;92959.72;2134865;27;20054;-73
2022/09/10 02:13:00;;;;;;;2.90;0.52;;;;;;;11.03;100.00;92960.56;2131203;27;20107;-72
2022/09/10 02:15:27;;;;;;;;;;;;;;;11.05;100.00;92963.56;2145960;27;21092;-71
2022/09/10 02:16:33;;;;;;;1.02;0.50;;;;;;;11.07;100.00;92961.97;2138643;27;19918;-72
2022/09/10 02:17:38;;;;;;;2.05;0.60;;;;;;;11.03;100.00;92969.34;2138568;27;20025;-72
2022/09/10 02:18:41;;;;;;;2.13;0.60;;;;;;;11.03;100.00;92963.25;2126386;27;20031;-72
2022/09/10 02:19:44;;;;;;;0.80;0.40;;;;;;;10.98;100.00;92969.13;2129307;27;20034;-72
2022/09/10 02:20:48;;;;;;;1.80;0.50;;;;;;;10.96;100.00;92958.06;2137824;27;20113;-72
2022/09/10 02:21:50;;;;;;;5.65;0.50;;;;;;;10.97;100.00;92965.66;2138199;27;20364;-72
2022/09/10 02:22:55;;;;;;;2.85;0.55;;;;;;;10.95;100.00;92965.34;2138139;27;20042;-72
2022/09/10 02:24:04;;;;;;;1.58;0.70;;;;;;;10.89;100.00;92969.72;2137499;27;20030;-72
2022/09/10 02:25:06;;;;;;;1.73;0.52;;;;;;;10.90;100.00;92957.09;2134151;27;20025;-73
2022/09/10 02:26:08;;;;;;;2.45;0.55;;;;;;;10.89;100.00;92960.91;2138146;27;20208;-73
2022/09/10 02:27:10;;;;;;;1.58;0.70;;;;;;;10.86;100.00;92959.84;2138139;27;20026;-73
2022/09/10 02:28:12;;;;;;;1.38;0.52;;;;;;;10.89;100.00;92961.69;2138052;27;20103;-73
2022/09/10 02:29:14;;;;;;;3.88;0.60;;;;;;;10.90;100.00;92962.44;2137350;27;20923;-73
2022/09/10 02:30:15;;;;;;;2.38;0.80;;;;;;;10.90;100.00;92957.09;2137768;27;20027;-73
2022/09/10 02:31:17;;;;;;;5.32;0.70;;;;;;;10.87;100.00;92961.34;2137822;27;20118;-75
2022/09/10 02:32:18;;;;;;;2.65;0.80;;;;;;;10.87;100.00;92963.28;2138172;27;20030;-74
2022/09/10 02:33:19;;;;;;;1.45;0.60;;;;;;;10.96;100.00;92966.84;2138010;27;20035;-73
2022/09/10 02:34:20;;;;;;;3.38;0.75;;;;;;;10.99;100.00;92960.66;2137125;27;20031;-75
2022/09/10 02:35:21;;;;;;;0.80;0.77;;;;;;;11.05;100.00;92972.34;2138051;27;20038;-72
2022/09/10 02:36:24;;;;;;;2.40;0.50;;;;;;;10.98;100.00;92972.53;2137967;27;20054;-75
2022/09/10 02:37:25;;;;;;;3.13;0.60;;;;;;;10.90;100.00;92968.53;2138004;27;20109;-73
2022/09/10 02:38:28;;;;;;;2.55;0.57;;;;;;;10.95;100.00;92968.03;2138103;27;20022;-75
2022/09/10 02:39:30;;;;;;;8.90;0.60;;;;;;;10.95;100.00;92960.00;2137948;27;20098;-73
2022/09/10 02:40:30;;;;;;;3.20;0.68;;;;;;;10.96;100.00;92963.41;2133542;27;20038;-73
2022/09/10 02:41:33;;;;;;;1.35;0.43;;;;;;;10.83;100.00;92961.44;2133710;27;20444;-76
2022/09/10 02:42:33;;;;;;;2.88;0.70;;;;;;;10.81;100.00;92960.38;2137989;27;20495;-76
2022/09/10 02:43:36;;;;;;;2.63;0.60;;;;;;;10.88;100.00;92954.06;2138109;27;20033;-74
2022/09/10 02:44:37;;;;;;;3.13;0.60;;;;;;;10.80;100.00;92953.53;2138004;27;20095;-75
2022/09/10 02:45:39;;;;;;;1.50;0.50;;;;;;;10.86;100.00;92943.81;2137307;27;20410;-75
2022/09/10 02:46:40;;;;;;;1.80;0.60;;;;;;;10.92;100.00;92941.38;2137976;27;20033;-75
2022/09/10 02:47:41;;;;;;;3.92;0.70;;;;;;;10.90;100.00;92943.72;2128776;27;20063;-75
2022/09/10 02:48:42;;;;;;;2.33;0.50;;;;;;;10.78;100.00;92940.56;2129405;27;20437;-75
2022/09/10 02:49:44;;;;;;;3.30;0.70;;;;;;;10.81;100.00;92945.06;2142575;27;20034;-75
2022/09/10 02:50:45;;;;;;;1.08;0.60;;;;;;;10.78;100.00;92942.47;2142848;27;20110;-75
2022/09/10 02:51:49;;;;;;;1.55;0.75;;;;;;;10.78;100.00;92939.81;2141548;27;20049;-75
2022/09/10 02:52:50;;;;;;;2.63;0.80;;;;;;;10.73;100.00;92943.75;2138798;27;20414;-75
2022/09/10 02:53:51;;;;;;;2.28;0.65;;;;;;;10.69;100.00;92940.41;2138739;27;20034;-74
2022/09/10 02:54:52;;;;;;;1.00;0.63;;;;;;;10.67;100.00;92939.31;2138502;27;20043;-74
2022/09/10 02:55:53;;;;;;;4.55;0.90;;;;;;;10.76;100.00;92944.84;2121554;27;20023;-75
2022/09/10 02:56:55;;;;;;;1.73;0.70;;;;;;;10.69;100.00;92943.09;2127492;27;20031;-75
2022/09/10 02:57:57;;;;;;;1.05;0.73;;;;;;;10.67;100.00;92939.31;2137845;27;20119;-75
2022/09/10 02:58:58;;;;;;;2.47;0.70;;;;;;;10.73;100.00;92943.00;2128809;27;20029;-75
2022/09/10 02:59:59;;;;;;;2.47;0.95;;;;;;;10.73;100.00;92943.00;2128561;27;20449;-75
2022/09/10 03:01:15;;;;;;;2.05;0.80;;;;;;;10.75;100.00;92946.00;2137162;27;20030;-75
2022/09/10 03:02:16;;;;;;;5.78;1.10;;;;;;;10.77;100.00;92951.69;2135502;27;20030;-75
2022/09/10 03:03:16;;;;;;;3.53;0.70;;;;;;;10.68;100.00;92951.53;2137854;27;20102;-75
2022/09/10 03:04:17;;;;;;;2.25;0.93;;;;;;;10.64;100.00;92950.88;2137851;27;20045;-74
2022/09/10 03:05:18;;;;;;;3.40;0.70;;;;;;;10.65;100.00;92947.75;2128238;27;20075;-74
2022/09/10 03:06:20;;;;;;;2.88;0.90;;;;;;;10.69;100.00;92961.03;2121620;27;20781;-74
2022/09/10 03:07:21;;;;;;;1.00;0.70;;;;;;;10.70;100.00;92947.25;2136304;27;20468;-74
2022/09/10 03:08:22;;;;;;;2.05;0.80;;;;;;;10.65;100.00;92952.38;2137777;27;20101;-75
2022/09/10 03:09:26;;;;;;;2.55;0.80;;;;;;;10.76;100.00;92950.19;2137760;27;20034;-75
2022/09/10 03:10:27;;;;;;;2.05;0.88;;;;;;;10.70;100.00;92960.63;2137628;27;20030;-75
2022/09/10 03:11:28;;;;;;;5.35;1.13;;;;;;;10.64;100.00;92951.63;2137012;27;20026;-75
2022/09/10 03:12:29;;;;;;;1.08;0.70;;;;;;;10.61;100.00;92946.34;2137791;27;20456;-75
2022/09/10 03:13:29;;;;;;;3.45;0.73;;;;;;;10.62;100.00;92947.84;2137680;27;20034;-75
2022/09/10 03:14:30;;;;;;;1.52;0.80;;;;;;;10.71;100.00;92953.34;2137264;27;20023;-75
2022/09/10 03:15:31;;;;;;;3.92;0.77;;;;;;;10.68;100.00;92951.53;2133271;27;20034;-75
2022/09/10 03:16:33;;;;;;;1.15;0.70;;;;;;;10.67;100.00;92942.75;2136464;27;20106;-75
2022/09/10 03:17:33;;;;;;;3.22;0.82;;;;;;;10.66;100.00;92954.59;2137551;27;20042;-75
2022/09/10 03:18:35;;;;;;;2.13;0.90;;;;;;;10.67;100.00;92950.78;2137742;27;20034;-74
2022/09/10 03:19:36;;;;;;;2.63;0.82;;;;;;;10.66;100.00;92956.53;2137535;27;20772;-74
2022/09/10 03:20:36;;;;;;;3.33;0.82;;;;;;;10.72;100.00;92949.53;2128075;27;20034;-75
2022/09/10 03:21:40;;;;;;;1.50;0.63;;;;;;;10.67;100.00;92963.38;2119445;28;20369;-75
2022/09/10 03:22:41;;;;;;;6.00;0.80;;;;;;;10.70;100.00;92947.25;2128697;27;20114;-75
2022/09/10 03:23:43;;;;;;;2.70;0.90;;;;;;;10.63;100.00;92957.38;2137676;27;20045;-74
2022/09/10 03:24:45;;;;;;;1.35;0.70;;;;;;;10.59;100.00;92957.47;2137642;27;20038;-75
2022/09/10 03:25:46;;;;;;;0.98;0.70;;;;;;;10.60;100.00;92956.28;2140724;27;20103;-74
2022/09/10 03:26:48;;;;;;;3.92;0.90;;;;;;;10.61;100.00;92954.38;2135012;27;20052;-75
2022/09/10 03:27:49;;;;;;;1.25;0.70;;;;;;;10.53;100.00;92959.88;2135479;27;20376;-75
2022/09/10 03:28:50;;;;;;;2.42;0.68;;;;;;;10.55;100.00;92957.56;2132682;27;20444;-75
2022/09/10 03:29:51;;;;;;;3.28;0.90;;;;;;;10.56;100.00;92956.38;2132596;27;20488;-75
2022/09/10 03:30:52;;;;;;;0.93;0.57;;;;;;;10.57;100.00;92952.53;2132577;27;20033;-76
2022/09/10 03:31:53;;;;;;;4.68;0.80;;;;;;;10.57;100.00;92957.88;2122587;27;20031;-74
2022/09/10 03:32:54;;;;;;;2.55;0.50;;;;;;;10.59;100.00;92960.88;2113676;27;20024;-74
2022/09/10 03:33:56;;;;;;;2.90;0.70;;;;;;;10.58;100.00;92948.69;2114153;28;20547;-75
2022/09/10 03:34:58;;;;;;;0.93;0.65;;;;;;;10.65;100.00;92955.03;2122798;27;20092;-75
2022/09/10 03:36:01;;;;;;;0.95;0.50;;;;;;;10.65;100.00;92957.72;2131816;27;20026;-76
2022/09/10 03:37:02;;;;;;;0.57;0.50;;;;;;;10.62;100.00;92953.19;2127533;27;20046;-75
2022/09/10 03:38:04;;;;;;;4.50;0.80;;;;;;;10.66;100.00;92948.50;2130894;27;20027;-73
2022/09/10 03:39:05;;;;;;;0.68;0.50;;;;;;;10.68;100.00;92948.84;2131713;27;20022;-75
2022/09/10 03:40:07;;;;;;;2.53;0.50;;;;;;;10.66;100.00;92956.53;2131742;27;20031;-75
2022/09/10 03:41:08;;;;;;;1.30;0.52;;;;;;;10.62;100.00;92953.19;2122551;27;20033;-75
2022/09/10 03:42:09;;;;;;;0.47;0.30;;;;;;;10.66;100.00;92949.25;2122965;27;20027;-75
2022/09/10 03:43:11;;;;;;;0.75;0.50;;;;;;;10.65;100.00;92952.38;2130753;27;20050;-75
2022/09/10 03:44:13;;;;;;;0.95;0.50;;;;;;;10.63;100.00;92954.72;2131769;27;20095;-75
2022/09/10 03:45:14;;;;;;;0.50;0.40;;;;;;;10.55;100.00;92948.78;2131698;27;20246;-75
2022/09/10 03:46:15;;;;;;;1.75;0.40;;;;;;;10.62;100.00;92953.94;2131766;27;20023;-75
2022/09/10 03:47:17;;;;;;;0.75;0.45;;;;;;;10.52;100.00;92950.38;2131706;27;20023;-75
2022/09/10 03:48:19;;;;;;;1.20;0.40;;;;;;;10.55;100.00;92946.13;2130779;27;20507;-75
2022/09/10 03:49:20;;;;;;;1.83;0.50;;;;;;;10.53;100.00;92951.84;2131773;27;20113;-74
2022/09/10 03:50:21;;;;;;;1.27;0.50;;;;;;;10.51;100.00;92945.44;2131617;27;20030;-74
2022/09/10 03:51:23;;;;;;;1.58;0.40;;;;;;;10.44;100.00;92949.03;2122627;27;20140;-74
2022/09/10 03:52:25;;;;;;;1.83;0.80;;;;;;;10.40;100.00;92943.00;2122933;27;20028;-74
2022/09/10 03:53:26;;;;;;;0.82;0.50;;;;;;;10.51;100.00;92956.13;2130873;27;20155;-75
2022/09/10 03:54:27;;;;;;;1.80;0.50;;;;;;;10.54;100.00;92950.72;2131580;27;20031;-75
2022/09/10 03:55:29;;;;;;;2.70;0.70;;;;;;;10.49;100.00;92953.88;2131641;27;20027;-75
2022/09/10 03:56:31;;;;;;;2.28;0.50;;;;;;;10.51;100.00;92956.13;2131558;27;20058;-74
2022/09/10 03:57:32;;;;;;;2.67;0.43;;;;;;;10.47;100.00;92956.22;2127531;27;20023;-74
2022/09/10 03:58:34;;;;;;;2.22;0.40;;;;;;;10.54;100.00;92955.31;2126524;27;20523;-74
2022/09/10 03:59:38;;;;;;;2.17;0.50;;;;;;;10.40;100.00;92958.28;2131524;27;20047;-74
2022/09/10 04:00:39;;;;;;;0.98;0.40;;;;;;;10.36;100.00;92958.41;2131481;27;20440;-75
2022/09/10 04:01:40;;;;;;;0.85;0.38;;;;;;;10.44;100.00;92953.63;2131668;27;20035;-74
2022/09/10 04:02:42;;;;;;;2.92;0.93;;;;;;;10.40;100.00;92964.38;2131514;27;20066;-75
2022/09/10 04:03:44;;;;;;;0.70;0.30;;;;;;;10.39;100.00;92956.81;2121613;27;20031;-75
2022/09/10 04:04:46;;;;;;;1.60;0.47;;;;;;;10.28;100.00;92952.47;2120504;27;20027;-75
2022/09/10 04:05:47;;;;;;;4.75;0.60;;;;;;;10.24;100.00;92956.34;2131660;27;20033;-75
2022/09/10 04:06:48;;;;;;;1.70;0.40;;;;;;;10.20;100.00;92966.38;2131446;27;20030;-74
2022/09/10 04:07:49;;;;;;;3.88;0.50;;;;;;;10.30;100.00;92955.47;2131529;27;20090;-74
2022/09/10 04:08:51;;;;;;;1.00;0.40;;;;;;;10.24;100.00;92951.03;2122080;27;20115;-74
2022/09/10 04:09:52;;;;;;;1.85;0.47;;;;;;;10.23;100.00;92952.19;2122332;27;20023;-75
2022/09/10 04:10:55;;;;;;;2.70;0.52;;;;;;;10.19;100.00;92954.94;2131414;27;20031;-74
2022/09/10 04:11:57;;;;;;;3.70;0.80;;;;;;;10.16;100.00;92953.09;2131495;27;20083;-75
2022/09/10 04:12:59;;;;;;;1.33;0.50;;;;;;;10.15;100.00;92953.53;2131535;27;20027;-74
2022/09/10 04:14:00;;;;;;;1.25;0.70;;;;;;;10.17;100.00;92951.91;2131167;27;20030;-74
2022/09/10 04:15:03;;;;;;;1.95;0.52;;;;;;;10.22;100.00;92954.09;2130254;27;20043;-74
2022/09/10 04:16:04;;;;;;;3.17;0.40;;;;;;;10.22;100.00;92953.34;2131466;27;20045;-73
2022/09/10 04:17:05;;;;;;;0.88;0.47;;;;;;;10.18;100.00;92950.00;2131464;27;20037;-74
2022/09/10 04:18:07;;;;;;;2.97;0.60;;;;;;;10.18;100.00;92956.09;2131330;27;20026;-76
2022/09/10 04:19:08;;;;;;;3.00;0.70;;;;;;;10.38;100.00;92960.66;2131293;27;20023;-75
2022/09/10 04:20:09;;;;;;;4.05;0.50;;;;;;;10.35;100.00;92959.56;2130584;27;20038;-75
2022/09/10 04:21:11;;;;;;;3.42;0.60;;;;;;;10.38;100.00;92957.97;2131255;27;20042;-75
2022/09/10 04:22:11;;;;;;;1.85;0.55;;;;;;;10.24;100.00;92957.13;2131478;27;20444;-74
2022/09/10 04:23:15;;;;;;;2.83;0.60;;;;;;;10.29;100.00;92961.22;2131363;27;20041;-74
2022/09/10 04:24:17;;;;;;;5.00;0.50;;;;;;;10.26;100.00;92956.72;2131372;27;20037;-74
2022/09/10 04:25:20;;;;;;;0.95;0.43;;;;;;;10.23;100.00;92962.88;2130657;27;20079;-74
2022/09/10 04:26:21;;;;;;;0.82;0.50;;;;;;;10.24;100.00;92953.69;2131337;27;20062;-74
2022/09/10 04:27:22;;;;;;;2.20;0.47;;;;;;;10.33;100.00;92961.91;2131413;27;20023;-74
2022/09/10 04:28:23;;;;;;;0.93;0.70;;;;;;;10.27;100.00;92960.88;2122215;27;20030;-74
2022/09/10 04:29:24;;;;;;;1.85;0.40;;;;;;;10.35;100.00;92959.56;2122199;27;20038;-74
2022/09/10 04:30:25;;;;;;;1.30;0.60;;;;;;;10.31;100.00;92953.53;2130281;27;20023;-74
2022/09/10 04:31:26;;;;;;;2.15;0.50;;;;;;;10.34;100.00;92955.38;2131501;27;20464;-74
2022/09/10 04:32:27;;;;;;;3.03;0.63;;;;;;;10.28;100.00;92951.72;2131419;27;20057;-74
2022/09/10 04:33:28;;;;;;;2.92;0.60;;;;;;;10.31;100.00;92958.88;2131466;27;20027;-75
2022/09/10 04:34:29;;;;;;;3.40;0.68;;;;;;;10.30;100.00;92957.38;2131135;27;20365;-75
2022/09/10 04:35:30;;;;;;;1.58;0.50;;;;;;;10.29;100.00;92955.88;2130471;27;20468;-75
2022/09/10 04:36:31;;;;;;;1.75;0.50;;;;;;;10.30;100.00;92952.78;2131222;27;20031;-75
2022/09/10 04:37:32;;;;;;;1.25;0.50;;;;;;;10.32;100.00;92958.47;2127555;27;20026;-74
2022/09/10 04:38:33;;;;;;;1.92;0.40;;;;;;;10.33;100.00;92959.22;2124460;27;20106;-74
2022/09/10 04:39:34;;;;;;;1.65;0.60;;;;;;;10.35;100.00;92956.88;2125113;27;20022;-74
2022/09/10 04:40:37;;;;;;;1.65;0.50;;;;;;;10.49;100.00;92958.47;2132139;27;20437;-75
2022/09/10 04:41:37;;;;;;;4.00;0.50;;;;;;;10.55;100.00;92962.16;2131973;27;20082;-75
2022/09/10 04:42:39;;;;;;;3.70;0.63;;;;;;;10.60;100.00;92966.97;2131824;27;20456;-75
2022/09/10 04:43:40;;;;;;;1.02;0.40;;;;;;;10.62;100.00;92961.97;2131634;27;20030;-75
2022/09/10 04:44:41;;;;;;;0.90;0.50;;;;;;;10.57;100.00;92960.53;2131183;27;20030;-74
2022/09/10 04:45:42;;;;;;;1.50;0.60;;;;;;;10.53;100.00;92961.81;2130479;27;20674;-74
2022/09/10 04:46:43;;;;;;;2.90;0.70;;;;;;;10.50;100.00;92968.75;2131289;27;20468;-74
2022/09/10 04:47:48;;;;;;;3.17;0.50;;;;;;;10.45;100.00;92973.84;2131323;27;20038;-74
2022/09/10 04:48:49;;;;;;;0.85;0.47;;;;;;;10.50;100.00;92973.34;2131135;27;20050;-74
2022/09/10 04:49:50;;;;;;;0.88;0.35;;;;;;;10.37;100.00;92970.59;2131040;27;20037;-74
2022/09/10 04:50:51;;;;;;;0.82;0.60;;;;;;;10.48;100.00;92968.41;2130083;27;20085;-74
2022/09/10 04:51:52;;;;;;;1.13;0.47;;;;;;;10.45;100.00;92969.25;2131142;27;20034;-74
2022/09/10 04:52:53;;;;;;;1.65;0.52;;;;;;;10.49;100.00;92969.94;2131176;27;20457;-74
2022/09/10 04:53:54;;;;;;;2.65;0.50;;;;;;;10.40;100.00;92968.97;2123002;27;20089;-74
2022/09/10 04:54:55;;;;;;;1.98;0.50;;;;;;;10.43;100.00;92966.22;2121855;27;20108;-74
2022/09/10 04:55:56;;;;;;;1.60;0.60;;;;;;;10.43;100.00;92973.50;2130173;27;20023;-74
2022/09/10 04:56:57;;;;;;;0.73;0.40;;;;;;;10.41;100.00;92965.91;2131256;27;20154;-74
2022/09/10 04:57:58;;;;;;;1.38;0.40;;;;;;;10.49;100.00;92971.81;2131183;27;20087;-74
2022/09/10 04:58:59;;;;;;;1.52;0.70;;;;;;;10.47;100.00;92974.91;2131189;27;20034;-74
2022/09/10 05:00:04;;;;;;;1.10;0.55;;;;;;;10.48;100.00;92973.00;2131076;27;20029;-74
2022/09/10 05:01:06;;;;;;;0.75;0.40;;;;;;;10.43;100.00;92963.56;2125890;27;20096;-74